VDSV

Details ICAO VDSV (KOS)
Name SIHANUKVILLE
Region Cambodia
Timezone Asia/Phnom_Penh (UTC+7.0)
Plans Departing 10
Arriving 14
Stats Elevation 33 ft / 10 m (AMSL)
Location 10.579172° 103.636827°
Runways 1
Magnetic Variation 0.394° W
Sunrise 2018-05-23 22:43:52 UTC / 2018-05-24 05:43:52 Local
Sunset 2018-05-24 11:23:31 UTC / 2018-05-24 18:23:31 Local
Advertisement - Login to hide

Runways

ID Width Length Bearing (true) Bearing (mag) Surface Threshold Offset Overrun Length
03 112 ft / 34 m 4,268 ft / 1,301 m 27.47° 27.86° Asphalt 0 ft / 0 m 0 ft / 0 m
21 112 ft / 34 m 4,268 ft / 1,301 m 207.47° 207.86° Asphalt 0 ft / 0 m 0 ft / 0 m

Map

Weather


0- 5 10 15 20 25 30 35+ Temperature / ° C

Clouds and Precipitation
Forecast for 2018-05-24 12:00 UTC. Updated an hour ago

Ground ~20,000 ft ~40,000 ft Winds

METAR

VDSV 241000Z 24006KT 9999 SCT015 SCT040 29/26 Q1007

TAF

TAF VDSV 240500Z 2406/2424 14007KT 9999 SCT017 SCT040 TEMPO 2406/2411 15015G25KT 5000 TSRA SCT015 FEW017CB SCT040
Warning: Do not use this data for real-world aviation or navigation. No guarantee of current accuracy is given.